Welcome to our new website - Welkom op onze vernieuwde website - Bienvenue sur notre nouveau site web - Willkommen auf unserer neuen Website
Check our progress frequently. Prüfen Sie unsere Fortschritte regelmäßig. Consultez notre progression fréquemment. Komt u straks nog eens terug
Het weer levert geen direct gevaar op.    Er zijn geen waarschuwingen afgegeven.

Regen radar Meer informatie rain snow radar


Bezoek ook deze websites:

Template documentation
and downloads

And another site


U vindt ons ook hier:

UK Metoffice

WeatherCloud

Weather Underground

AWEKAS


METAR rapporten vliegvelden

Warning: A non-numeric value encountered in /customers/a/f/b/meteoassenede.be/httpd.www/weather28/metar/metarDisplay.php on line 166
   
EBBR - Brussels International Airport, Belgium
Afstand tot: W 14 km
Gewijzigd: 14-11-2019 07:50
Gedeeltelijk bewolkt  
Gedeeltelijk bewolkt  
   Wind: ZO 24 km/h
Wind: ZO 24 km/h
Temperatuur: 6°C
Voelt als: 2°C
Dauwpunt: 3°C
Vochtigheid: 81%
Barometer: 997 hPa
Bewolking: Gedeeltelijk bewolkt
Zicht: meer dan 10 km
Bewolking: Gedeeltelijk bewolkt 3700 ft
EBBR 140650Z 14013KT 9999 SCT037 06/03 Q0997 TEMPO 4500 RA BKN012
EBBE - Beauvechain (Bevekom), Belgium
Afstand tot: ZZO 17 km
Gewijzigd: 14-11-2019 08:03
Grotendeels bewolkt  
Grotendeels bewolkt  
   Wind: ZO 19 km/h
Wind: ZO 19 km/h
Temperatuur: 5°C
Voelt als: 1°C
Dauwpunt: 2°C
Vochtigheid: 81%
Barometer: 997 hPa
Bewolking: Grotendeels bewolkt
Zicht: meer dan 10 km
Bewolking: Grotendeels bewolkt 6500 ft,
Grotendeels bewolkt 9000 ft
EBBE 140703Z 13010KT 9999 BKN065 BKN090 05/02 Q0997 BLU BLU TEMPO GRN
EBDT - Schaffen, Belgium
Afstand tot: ONO 29 km
Gewijzigd: 14-11-2019 08:14
Bewolking  
Bewolking  
   Wind: OZO 15 km/h
Wind: OZO 15 km/h
Temperatuur: 6°C
Voelt als: 3°C
Dauwpunt: 3°C
Vochtigheid: 81%
Barometer: 998 hPa
Bewolking: Bewolking
Zicht: meer dan 10 km
Bewolking: Bewolking 5000 ft
EBDT 140714Z AUTO 12008KT 9999 OVC050/// 06/03 Q0998 BLU
EBAW - Antwerp/Deurne, Belgium
Afstand tot: NNW 38 km
Gewijzigd: 14-11-2019 07:50
Wat regen mogelijk, Licht bewolkt  
Wat regen mogelijk, Licht bewolkt  
   Wind: OZO 19 km/h
Wind: OZO 19 km/h
Temperatuur: 5°C
Voelt als: 1°C
Dauwpunt: 4°C
Vochtigheid: 93%
Barometer: 997 hPa
Bewolking: Licht bewolkt
Zicht: meer dan 10 km
Bewolking: Licht bewolkt 3200 ft
EBAW 140650Z 12010KT 9999 -RA FEW032 05/04 Q0997 NOSIG
EBCI - Charleroi/Gosselies, Belgium
Afstand tot: ZZW 51 km
Gewijzigd: 14-11-2019 07:50
Wat regen mogelijk, Grotendeels bewolkt  
Wat regen mogelijk, Grotendeels bewolkt  
   Wind: ZO 22 km/h
Wind: ZO 22 km/h
Temperatuur: 5°C
Voelt als: 1°C
Dauwpunt: 2°C
Vochtigheid: 81%
Barometer: 996 hPa
Bewolking: Grotendeels bewolkt
Zicht: meer dan 10 km
Bewolking: Grotendeels bewolkt 1700 ft
EBCI 140650Z 14012KT 9999 -RA BKN017 05/02 Q0996 TEMPO BKN014
EBLG - Bierset/Liege, Belgium
Afstand tot: OZO 60 km
Gewijzigd: 14-11-2019 07:50
Helder  
Helder  
   Wind: ZZO 22 km/h
Wind: ZZO 22 km/h
Temperatuur: 6°C
Voelt als: 2°C
Dauwpunt: 1°C
Vochtigheid: 71%
Barometer: 998 hPa
Zicht: meer dan 10 km
Bewolking: Helder
EBLG 140650Z 15012KT CAVOK 06/01 Q0998 NOSIG

Script ontwikkeld door  Saratoga-weather.org Aangepast voor de template door  Weerstation Leuven

Apparatuur in gebruik:

Weerstation
Davis Vantage Pro2

Weerprogramma
Meteobridge

Weercomputer
TP-Link TL-MR3020

Webleverancier
One.com

Davis Vantage Pro2

Meteobridge

TP-Link TL-MR3020

One.com